sensor_id;sensor_type;location;lat;lon;timestamp;temperature;humidity
40374;DHT22;26079;45.958;12.492;2024-03-17T00:00:50;8.80;99.90
40374;DHT22;26079;45.958;12.492;2024-03-17T00:03:16;8.80;99.90
40374;DHT22;26079;45.958;12.492;2024-03-17T00:05:42;8.80;99.90
40374;DHT22;26079;45.958;12.492;2024-03-17T00:08:07;8.70;99.90
40374;DHT22;26079;45.958;12.492;2024-03-17T00:10:33;8.70;99.90
40374;DHT22;26079;45.958;12.492;2024-03-17T00:13:00;8.70;99.90
40374;DHT22;26079;45.958;12.492;2024-03-17T00:15:26;8.60;99.90
40374;DHT22;26079;45.958;12.492;2024-03-17T00:17:52;8.60;99.90
40374;DHT22;26079;45.958;12.492;2024-03-17T00:20:18;8.60;99.90
40374;DHT22;26079;45.958;12.492;2024-03-17T00:22:49;8.50;99.90
40374;DHT22;26079;45.958;12.492;2024-03-17T00:25:17;8.50;99.90
40374;DHT22;26079;45.958;12.492;2024-03-17T00:27:43;8.50;99.90
40374;DHT22;26079;45.958;12.492;2024-03-17T00:30:11;8.50;99.90
40374;DHT22;26079;45.958;12.492;2024-03-17T00:32:41;8.50;99.90
40374;DHT22;26079;45.958;12.492;2024-03-17T00:35:09;8.40;99.90
40374;DHT22;26079;45.958;12.492;2024-03-17T00:37:35;8.40;99.90
40374;DHT22;26079;45.958;12.492;2024-03-17T00:40:02;8.40;99.90
40374;DHT22;26079;45.958;12.492;2024-03-17T00:42:29;8.40;99.90
40374;DHT22;26079;45.958;12.492;2024-03-17T00:44:55;8.40;99.90
40374;DHT22;26079;45.958;12.492;2024-03-17T00:47:21;8.40;99.90
40374;DHT22;26079;45.958;12.492;2024-03-17T00:49:47;8.40;99.90
40374;DHT22;26079;45.958;12.492;2024-03-17T00:52:16;8.40;99.90
40374;DHT22;26079;45.958;12.492;2024-03-17T00:54:42;8.40;99.90
40374;DHT22;26079;45.958;12.492;2024-03-17T00:57:07;8.40;99.90
40374;DHT22;26079;45.958;12.492;2024-03-17T00:59:33;8.40;99.90
40374;DHT22;26079;45.958;12.492;2024-03-17T01:01:59;8.40;99.90
40374;DHT22;26079;45.958;12.492;2024-03-17T01:04:25;8.30;99.90
40374;DHT22;26079;45.958;12.492;2024-03-17T01:06:50;8.30;99.90
40374;DHT22;26079;45.958;12.492;2024-03-17T01:09:17;8.30;99.90
40374;DHT22;26079;45.958;12.492;2024-03-17T01:11:42;8.30;99.90
40374;DHT22;26079;45.958;12.492;2024-03-17T01:14:09;8.20;99.90
40374;DHT22;26079;45.958;12.492;2024-03-17T01:16:34;8.10;99.90
40374;DHT22;26079;45.958;12.492;2024-03-17T01:19:00;8.10;99.90
40374;DHT22;26079;45.958;12.492;2024-03-17T01:21:26;8.10;99.90
40374;DHT22;26079;45.958;12.492;2024-03-17T01:23:52;8.10;99.90
40374;DHT22;26079;45.958;12.492;2024-03-17T01:26:18;8.10;99.90
40374;DHT22;26079;45.958;12.492;2024-03-17T01:28:44;8.10;99.90
40374;DHT22;26079;45.958;12.492;2024-03-17T01:31:09;8.20;99.90
40374;DHT22;26079;45.958;12.492;2024-03-17T01:33:35;8.20;99.90
40374;DHT22;26079;45.958;12.492;2024-03-17T01:36:01;8.30;99.90
40374;DHT22;26079;45.958;12.492;2024-03-17T01:38:27;8.30;99.90
40374;DHT22;26079;45.958;12.492;2024-03-17T01:40:52;8.30;99.90
40374;DHT22;26079;45.958;12.492;2024-03-17T01:43:18;8.20;99.90
40374;DHT22;26079;45.958;12.492;2024-03-17T01:45:44;8.10;99.90
40374;DHT22;26079;45.958;12.492;2024-03-17T01:48:14;8.00;99.90
40374;DHT22;26079;45.958;12.492;2024-03-17T01:50:45;8.00;99.90
40374;DHT22;26079;45.958;12.492;2024-03-17T01:53:13;8.00;99.90
40374;DHT22;26079;45.958;12.492;2024-03-17T01:55:42;8.00;99.90
40374;DHT22;26079;45.958;12.492;2024-03-17T01:58:08;7.90;99.90
40374;DHT22;26079;45.958;12.492;2024-03-17T02:00:36;7.90;99.90
40374;DHT22;26079;45.958;12.492;2024-03-17T02:03:04;7.90;99.90
40374;DHT22;26079;45.958;12.492;2024-03-17T02:05:31;7.90;99.90
40374;DHT22;26079;45.958;12.492;2024-03-17T02:07:57;7.80;99.90
40374;DHT22;26079;45.958;12.492;2024-03-17T02:10:22;7.90;99.90
40374;DHT22;26079;45.958;12.492;2024-03-17T02:12:48;7.80;99.90
40374;DHT22;26079;45.958;12.492;2024-03-17T02:15:14;7.80;99.90
40374;DHT22;26079;45.958;12.492;2024-03-17T02:17:40;7.90;99.90
40374;DHT22;26079;45.958;12.492;2024-03-17T02:20:06;7.90;99.90
40374;DHT22;26079;45.958;12.492;2024-03-17T02:22:34;7.80;99.90
40374;DHT22;26079;45.958;12.492;2024-03-17T02:25:01;7.70;99.90
40374;DHT22;26079;45.958;12.492;2024-03-17T02:27:27;7.80;99.90
40374;DHT22;26079;45.958;12.492;2024-03-17T02:29:53;7.80;99.90
40374;DHT22;26079;45.958;12.492;2024-03-17T02:32:19;7.80;99.90
40374;DHT22;26079;45.958;12.492;2024-03-17T02:34:48;7.70;99.90
40374;DHT22;26079;45.958;12.492;2024-03-17T02:37:14;7.70;99.90
40374;DHT22;26079;45.958;12.492;2024-03-17T02:39:39;7.70;99.90
40374;DHT22;26079;45.958;12.492;2024-03-17T02:42:07;7.70;99.90
40374;DHT22;26079;45.958;12.492;2024-03-17T02:44:34;7.70;99.90
40374;DHT22;26079;45.958;12.492;2024-03-17T02:47:00;7.70;99.90
40374;DHT22;26079;45.958;12.492;2024-03-17T02:49:27;7.70;99.90
40374;DHT22;26079;45.958;12.492;2024-03-17T02:51:54;7.80;99.90
40374;DHT22;26079;45.958;12.492;2024-03-17T02:54:21;7.70;99.90
40374;DHT22;26079;45.958;12.492;2024-03-17T02:56:47;7.70;99.90
40374;DHT22;26079;45.958;12.492;2024-03-17T02:59:13;7.80;99.90
40374;DHT22;26079;45.958;12.492;2024-03-17T03:01:38;7.80;99.90
40374;DHT22;26079;45.958;12.492;2024-03-17T03:04:05;7.80;99.90
40374;DHT22;26079;45.958;12.492;2024-03-17T03:06:33;7.70;99.90
40374;DHT22;26079;45.958;12.492;2024-03-17T03:08:59;7.70;99.90
40374;DHT22;26079;45.958;12.492;2024-03-17T03:11:24;7.70;99.90
40374;DHT22;26079;45.958;12.492;2024-03-17T03:13:50;7.60;99.90
40374;DHT22;26079;45.958;12.492;2024-03-17T03:16:16;7.60;99.90
40374;DHT22;26079;45.958;12.492;2024-03-17T03:18:42;7.50;99.90
40374;DHT22;26079;45.958;12.492;2024-03-17T03:21:10;7.40;99.90
40374;DHT22;26079;45.958;12.492;2024-03-17T03:23:36;7.30;99.90
40374;DHT22;26079;45.958;12.492;2024-03-17T03:26:03;7.30;99.90
40374;DHT22;26079;45.958;12.492;2024-03-17T03:28:31;7.30;99.90
40374;DHT22;26079;45.958;12.492;2024-03-17T03:30:57;7.20;99.90
40374;DHT22;26079;45.958;12.492;2024-03-17T03:33:23;7.20;99.90
40374;DHT22;26079;45.958;12.492;2024-03-17T03:35:50;7.30;99.90
40374;DHT22;26079;45.958;12.492;2024-03-17T03:38:16;7.20;99.90
40374;DHT22;26079;45.958;12.492;2024-03-17T03:40:42;7.20;99.90
40374;DHT22;26079;45.958;12.492;2024-03-17T03:43:09;7.10;99.90
40374;DHT22;26079;45.958;12.492;2024-03-17T03:45:36;7.10;99.90
40374;DHT22;26079;45.958;12.492;2024-03-17T03:48:02;7.10;99.90
40374;DHT22;26079;45.958;12.492;2024-03-17T03:50:29;7.10;99.90
40374;DHT22;26079;45.958;12.492;2024-03-17T03:52:55;7.10;99.90
40374;DHT22;26079;45.958;12.492;2024-03-17T03:55:21;7.10;99.90
40374;DHT22;26079;45.958;12.492;2024-03-17T03:57:46;7.10;99.90
40374;DHT22;26079;45.958;12.492;2024-03-17T04:00:18;7.10;99.90
40374;DHT22;26079;45.958;12.492;2024-03-17T04:02:51;7.10;99.90
40374;DHT22;26079;45.958;12.492;2024-03-17T04:05:20;7.10;99.90
40374;DHT22;26079;45.958;12.492;2024-03-17T04:07:48;7.20;99.90
40374;DHT22;26079;45.958;12.492;2024-03-17T04:10:15;7.20;99.90
40374;DHT22;26079;45.958;12.492;2024-03-17T04:12:41;7.20;99.90
40374;DHT22;26079;45.958;12.492;2024-03-17T04:15:08;7.30;99.90
40374;DHT22;26079;45.958;12.492;2024-03-17T04:17:36;7.30;99.90
40374;DHT22;26079;45.958;12.492;2024-03-17T04:20:03;7.30;99.90
40374;DHT22;26079;45.958;12.492;2024-03-17T04:22:30;7.30;99.90
40374;DHT22;26079;45.958;12.492;2024-03-17T04:24:56;7.30;99.90
40374;DHT22;26079;45.958;12.492;2024-03-17T04:27:29;7.30;99.90
40374;DHT22;26079;45.958;12.492;2024-03-17T04:29:56;7.30;99.90
40374;DHT22;26079;45.958;12.492;2024-03-17T04:32:23;7.30;99.90
40374;DHT22;26079;45.958;12.492;2024-03-17T04:34:49;7.30;99.90
40374;DHT22;26079;45.958;12.492;2024-03-17T04:37:15;7.30;99.90
40374;DHT22;26079;45.958;12.492;2024-03-17T04:39:43;7.20;99.90
40374;DHT22;26079;45.958;12.492;2024-03-17T04:42:14;7.20;99.90
40374;DHT22;26079;45.958;12.492;2024-03-17T04:44:40;7.20;99.90
40374;DHT22;26079;45.958;12.492;2024-03-17T04:47:07;7.20;99.90
40374;DHT22;26079;45.958;12.492;2024-03-17T04:49:44;7.20;99.90
40374;DHT22;26079;45.958;12.492;2024-03-17T04:52:11;7.20;99.90
40374;DHT22;26079;45.958;12.492;2024-03-17T04:54:37;7.20;99.90
40374;DHT22;26079;45.958;12.492;2024-03-17T04:57:03;7.10;99.90
40374;DHT22;26079;45.958;12.492;2024-03-17T04:59:29;7.10;99.90
40374;DHT22;26079;45.958;12.492;2024-03-17T05:01:55;7.10;99.90
40374;DHT22;26079;45.958;12.492;2024-03-17T05:04:21;7.00;99.90
40374;DHT22;26079;45.958;12.492;2024-03-17T05:06:48;7.00;99.90
40374;DHT22;26079;45.958;12.492;2024-03-17T05:09:19;6.90;99.90
40374;DHT22;26079;45.958;12.492;2024-03-17T05:11:45;6.90;99.90
40374;DHT22;26079;45.958;12.492;2024-03-17T05:14:11;6.80;99.90
40374;DHT22;26079;45.958;12.492;2024-03-17T05:16:37;6.70;99.90
40374;DHT22;26079;45.958;12.492;2024-03-17T05:19:02;6.70;99.90
40374;DHT22;26079;45.958;12.492;2024-03-17T05:21:29;6.70;99.90
40374;DHT22;26079;45.958;12.492;2024-03-17T05:23:56;6.80;99.90
40374;DHT22;26079;45.958;12.492;2024-03-17T05:26:23;6.80;99.90
40374;DHT22;26079;45.958;12.492;2024-03-17T05:28:50;6.80;99.90
40374;DHT22;26079;45.958;12.492;2024-03-17T05:31:16;6.80;99.90
40374;DHT22;26079;45.958;12.492;2024-03-17T05:33:46;6.90;99.90
40374;DHT22;26079;45.958;12.492;2024-03-17T05:36:11;6.90;99.90
40374;DHT22;26079;45.958;12.492;2024-03-17T05:38:37;7.00;99.90
40374;DHT22;26079;45.958;12.492;2024-03-17T05:41:04;7.00;99.90
40374;DHT22;26079;45.958;12.492;2024-03-17T05:43:38;7.00;99.90
40374;DHT22;26079;45.958;12.492;2024-03-17T05:46:11;7.00;99.90
40374;DHT22;26079;45.958;12.492;2024-03-17T05:48:40;7.10;99.90
40374;DHT22;26079;45.958;12.492;2024-03-17T05:51:07;7.10;99.90
40374;DHT22;26079;45.958;12.492;2024-03-17T05:53:33;7.10;99.90
40374;DHT22;26079;45.958;12.492;2024-03-17T05:56:00;7.10;99.90
40374;DHT22;26079;45.958;12.492;2024-03-17T05:58:26;7.20;99.90
40374;DHT22;26079;45.958;12.492;2024-03-17T06:00:52;7.30;99.90
40374;DHT22;26079;45.958;12.492;2024-03-17T06:03:17;7.40;99.90
40374;DHT22;26079;45.958;12.492;2024-03-17T06:05:43;7.30;99.90
40374;DHT22;26079;45.958;12.492;2024-03-17T06:08:12;7.30;99.90
40374;DHT22;26079;45.958;12.492;2024-03-17T06:10:46;7.40;99.90
40374;DHT22;26079;45.958;12.492;2024-03-17T06:13:12;7.50;99.90
40374;DHT22;26079;45.958;12.492;2024-03-17T06:15:42;7.60;99.90
40374;DHT22;26079;45.958;12.492;2024-03-17T06:18:11;7.80;99.90
40374;DHT22;26079;45.958;12.492;2024-03-17T06:20:46;7.90;99.90
40374;DHT22;26079;45.958;12.492;2024-03-17T06:23:13;8.00;99.90
40374;DHT22;26079;45.958;12.492;2024-03-17T06:25:47;8.10;99.90
40374;DHT22;26079;45.958;12.492;2024-03-17T06:28:15;8.10;99.90
40374;DHT22;26079;45.958;12.492;2024-03-17T06:30:41;8.10;99.90
40374;DHT22;26079;45.958;12.492;2024-03-17T06:33:09;8.10;99.90
40374;DHT22;26079;45.958;12.492;2024-03-17T06:35:39;8.20;99.90
40374;DHT22;26079;45.958;12.492;2024-03-17T06:38:05;8.20;99.90
40374;DHT22;26079;45.958;12.492;2024-03-17T06:40:38;8.10;99.90
40374;DHT22;26079;45.958;12.492;2024-03-17T06:43:04;8.20;99.90
40374;DHT22;26079;45.958;12.492;2024-03-17T06:45:30;8.30;99.90
40374;DHT22;26079;45.958;12.492;2024-03-17T06:47:56;8.40;99.90
40374;DHT22;26079;45.958;12.492;2024-03-17T06:50:22;8.40;99.90
40374;DHT22;26079;45.958;12.492;2024-03-17T06:52:48;8.50;99.90
40374;DHT22;26079;45.958;12.492;2024-03-17T06:55:14;8.70;99.90
40374;DHT22;26079;45.958;12.492;2024-03-17T06:57:43;8.70;99.90
40374;DHT22;26079;45.958;12.492;2024-03-17T07:00:12;8.70;99.90
40374;DHT22;26079;45.958;12.492;2024-03-17T07:02:42;8.70;99.90
40374;DHT22;26079;45.958;12.492;2024-03-17T07:05:14;8.90;99.90
40374;DHT22;26079;45.958;12.492;2024-03-17T07:07:43;9.10;99.90
40374;DHT22;26079;45.958;12.492;2024-03-17T07:10:10;9.30;99.90
40374;DHT22;26079;45.958;12.492;2024-03-17T07:12:39;9.40;99.90
40374;DHT22;26079;45.958;12.492;2024-03-17T07:15:05;9.30;99.90
40374;DHT22;26079;45.958;12.492;2024-03-17T07:17:34;9.30;99.90
40374;DHT22;26079;45.958;12.492;2024-03-17T07:20:00;9.30;99.90
40374;DHT22;26079;45.958;12.492;2024-03-17T07:22:26;9.40;99.90
40374;DHT22;26079;45.958;12.492;2024-03-17T07:24:55;9.60;99.90
40374;DHT22;26079;45.958;12.492;2024-03-17T07:27:26;9.80;99.90
40374;DHT22;26079;45.958;12.492;2024-03-17T07:29:51;10.10;99.90
40374;DHT22;26079;45.958;12.492;2024-03-17T07:32:17;10.20;99.90
40374;DHT22;26079;45.958;12.492;2024-03-17T07:34:43;10.30;99.90
40374;DHT22;26079;45.958;12.492;2024-03-17T07:37:08;10.30;99.90
40374;DHT22;26079;45.958;12.492;2024-03-17T07:39:35;10.50;99.90
40374;DHT22;26079;45.958;12.492;2024-03-17T07:42:01;10.70;99.90
40374;DHT22;26079;45.958;12.492;2024-03-17T07:44:30;10.80;99.90
40374;DHT22;26079;45.958;12.492;2024-03-17T07:47:03;11.00;99.90
40374;DHT22;26079;45.958;12.492;2024-03-17T07:49:30;11.00;99.90
40374;DHT22;26079;45.958;12.492;2024-03-17T07:51:55;11.20;99.90
40374;DHT22;26079;45.958;12.492;2024-03-17T07:54:23;11.30;99.90
40374;DHT22;26079;45.958;12.492;2024-03-17T07:56:49;11.40;99.90
40374;DHT22;26079;45.958;12.492;2024-03-17T07:59:15;11.40;99.90
40374;DHT22;26079;45.958;12.492;2024-03-17T08:01:46;11.50;99.90
40374;DHT22;26079;45.958;12.492;2024-03-17T08:04:12;11.60;99.90
40374;DHT22;26079;45.958;12.492;2024-03-17T08:06:42;11.80;99.90
40374;DHT22;26079;45.958;12.492;2024-03-17T08:09:08;12.10;99.90
40374;DHT22;26079;45.958;12.492;2024-03-17T08:11:35;12.20;99.90
40374;DHT22;26079;45.958;12.492;2024-03-17T08:14:00;12.40;99.90
40374;DHT22;26079;45.958;12.492;2024-03-17T08:16:27;12.60;99.90
40374;DHT22;26079;45.958;12.492;2024-03-17T08:18:55;12.70;99.90
40374;DHT22;26079;45.958;12.492;2024-03-17T08:21:20;12.90;99.90
40374;DHT22;26079;45.958;12.492;2024-03-17T08:23:46;13.00;99.90
40374;DHT22;26079;45.958;12.492;2024-03-17T08:26:12;13.00;99.90
40374;DHT22;26079;45.958;12.492;2024-03-17T08:28:38;13.10;99.90
40374;DHT22;26079;45.958;12.492;2024-03-17T08:31:04;13.20;99.90
40374;DHT22;26079;45.958;12.492;2024-03-17T08:33:31;13.30;99.90
40374;DHT22;26079;45.958;12.492;2024-03-17T08:36:00;13.30;99.90
40374;DHT22;26079;45.958;12.492;2024-03-17T08:38:27;13.40;99.90
40374;DHT22;26079;45.958;12.492;2024-03-17T08:40:54;13.50;99.90
40374;DHT22;26079;45.958;12.492;2024-03-17T08:43:21;13.60;99.40
40374;DHT22;26079;45.958;12.492;2024-03-17T08:46:00;13.80;99.80
40374;DHT22;26079;45.958;12.492;2024-03-17T08:48:32;13.90;99.10
40374;DHT22;26079;45.958;12.492;2024-03-17T08:50:59;13.90;98.70
40374;DHT22;26079;45.958;12.492;2024-03-17T08:53:26;14.00;99.10
40374;DHT22;26079;45.958;12.492;2024-03-17T08:55:52;14.10;97.70
40374;DHT22;26079;45.958;12.492;2024-03-17T08:58:18;14.10;98.20
40374;DHT22;26079;45.958;12.492;2024-03-17T09:00:44;14.10;99.30
40374;DHT22;26079;45.958;12.492;2024-03-17T09:03:11;14.20;99.90
40374;DHT22;26079;45.958;12.492;2024-03-17T09:05:39;14.30;98.00
40374;DHT22;26079;45.958;12.492;2024-03-17T09:08:06;14.30;98.60
40374;DHT22;26079;45.958;12.492;2024-03-17T09:10:42;14.30;99.20
40374;DHT22;26079;45.958;12.492;2024-03-17T09:13:13;14.40;98.10
40374;DHT22;26079;45.958;12.492;2024-03-17T09:15:39;14.40;98.10
40374;DHT22;26079;45.958;12.492;2024-03-17T09:18:05;14.40;99.80
40374;DHT22;26079;45.958;12.492;2024-03-17T09:20:31;14.40;98.50
40374;DHT22;26079;45.958;12.492;2024-03-17T09:22:59;14.50;99.20
40374;DHT22;26079;45.958;12.492;2024-03-17T09:25:27;14.50;98.00
40374;DHT22;26079;45.958;12.492;2024-03-17T09:27:53;14.50;99.20
40374;DHT22;26079;45.958;12.492;2024-03-17T09:30:19;14.60;98.90
40374;DHT22;26079;45.958;12.492;2024-03-17T09:32:45;14.60;98.20
40374;DHT22;26079;45.958;12.492;2024-03-17T09:35:10;14.70;98.20
40374;DHT22;26079;45.958;12.492;2024-03-17T09:37:36;15.00;97.90
40374;DHT22;26079;45.958;12.492;2024-03-17T09:40:02;15.10;97.20
40374;DHT22;26079;45.958;12.492;2024-03-17T09:42:31;15.10;96.80
40374;DHT22;26079;45.958;12.492;2024-03-17T09:44:58;15.10;96.30
40374;DHT22;26079;45.958;12.492;2024-03-17T09:47:24;15.20;96.10
40374;DHT22;26079;45.958;12.492;2024-03-17T09:49:51;15.20;96.00
40374;DHT22;26079;45.958;12.492;2024-03-17T09:52:22;15.40;96.10
40374;DHT22;26079;45.958;12.492;2024-03-17T09:57:22;15.40;94.70
40374;DHT22;26079;45.958;12.492;2024-03-17T09:59:55;15.40;95.20
40374;DHT22;26079;45.958;12.492;2024-03-17T10:02:22;15.50;95.40
40374;DHT22;26079;45.958;12.492;2024-03-17T10:04:48;15.50;94.60
40374;DHT22;26079;45.958;12.492;2024-03-17T10:07:14;15.60;94.20
40374;DHT22;26079;45.958;12.492;2024-03-17T10:09:42;15.70;94.50
40374;DHT22;26079;45.958;12.492;2024-03-17T10:12:28;15.70;95.10
40374;DHT22;26079;45.958;12.492;2024-03-17T10:15:01;15.80;94.30
40374;DHT22;26079;45.958;12.492;2024-03-17T10:17:33;15.80;94.50
40374;DHT22;26079;45.958;12.492;2024-03-17T10:20:16;15.80;93.50
40374;DHT22;26079;45.958;12.492;2024-03-17T10:23:03;15.90;94.10
40374;DHT22;26079;45.958;12.492;2024-03-17T10:25:31;16.00;93.80
40374;DHT22;26079;45.958;12.492;2024-03-17T10:27:57;16.00;94.50
40374;DHT22;26079;45.958;12.492;2024-03-17T10:30:24;16.10;94.50
40374;DHT22;26079;45.958;12.492;2024-03-17T10:32:57;16.10;93.70
40374;DHT22;26079;45.958;12.492;2024-03-17T10:35:30;16.20;93.70
40374;DHT22;26079;45.958;12.492;2024-03-17T10:37:58;16.30;93.60
40374;DHT22;26079;45.958;12.492;2024-03-17T10:40:25;16.30;93.60
40374;DHT22;26079;45.958;12.492;2024-03-17T10:42:51;16.40;92.60
40374;DHT22;26079;45.958;12.492;2024-03-17T10:45:17;16.50;92.60
40374;DHT22;26079;45.958;12.492;2024-03-17T10:47:50;16.70;92.20
40374;DHT22;26079;45.958;12.492;2024-03-17T10:50:21;16.80;91.00
40374;DHT22;26079;45.958;12.492;2024-03-17T10:52:48;16.70;91.70
40374;DHT22;26079;45.958;12.492;2024-03-17T10:55:23;16.70;92.40
40374;DHT22;26079;45.958;12.492;2024-03-17T10:57:51;16.80;92.20
40374;DHT22;26079;45.958;12.492;2024-03-17T11:00:21;17.00;92.00
40374;DHT22;26079;45.958;12.492;2024-03-17T11:02:55;17.20;91.70
40374;DHT22;26079;45.958;12.492;2024-03-17T11:05:23;17.30;90.70
40374;DHT22;26079;45.958;12.492;2024-03-17T11:07:53;17.40;90.20
40374;DHT22;26079;45.958;12.492;2024-03-17T11:10:28;17.30;89.00
40374;DHT22;26079;45.958;12.492;2024-03-17T11:12:56;17.40;87.90
40374;DHT22;26079;45.958;12.492;2024-03-17T11:17:55;17.40;88.20
40374;DHT22;26079;45.958;12.492;2024-03-17T11:20:25;17.60;89.30
40374;DHT22;26079;45.958;12.492;2024-03-17T11:22:53;17.70;89.10
40374;DHT22;26079;45.958;12.492;2024-03-17T11:38:59;17.90;87.30
40374;DHT22;26079;45.958;12.492;2024-03-17T11:47:02;18.00;87.80
40374;DHT22;26079;45.958;12.492;2024-03-17T11:49:41;18.00;86.70
40374;DHT22;26079;45.958;12.492;2024-03-17T11:54:37;18.10;87.90
40374;DHT22;26079;45.958;12.492;2024-03-17T11:57:04;18.00;87.50
40374;DHT22;26079;45.958;12.492;2024-03-17T11:59:31;18.10;87.50
40374;DHT22;26079;45.958;12.492;2024-03-17T12:01:58;18.00;87.80
40374;DHT22;26079;45.958;12.492;2024-03-17T12:04:25;18.00;88.30
40374;DHT22;26079;45.958;12.492;2024-03-17T12:06:51;18.10;88.00
40374;DHT22;26079;45.958;12.492;2024-03-17T12:14:33;18.10;88.60
40374;DHT22;26079;45.958;12.492;2024-03-17T12:17:09;18.20;86.80
40374;DHT22;26079;45.958;12.492;2024-03-17T12:19:36;18.20;87.90
40374;DHT22;26079;45.958;12.492;2024-03-17T12:22:04;18.10;87.90
40374;DHT22;26079;45.958;12.492;2024-03-17T12:24:32;18.10;88.30
40374;DHT22;26079;45.958;12.492;2024-03-17T12:26:59;18.00;87.50
40374;DHT22;26079;45.958;12.492;2024-03-17T12:29:30;18.00;88.30
40374;DHT22;26079;45.958;12.492;2024-03-17T12:32:02;17.90;88.40
40374;DHT22;26079;45.958;12.492;2024-03-17T12:34:30;17.90;88.20
40374;DHT22;26079;45.958;12.492;2024-03-17T12:36:58;17.90;88.40
40374;DHT22;26079;45.958;12.492;2024-03-17T12:39:27;18.00;88.90
40374;DHT22;26079;45.958;12.492;2024-03-17T12:42:06;18.00;88.30
40374;DHT22;26079;45.958;12.492;2024-03-17T12:44:34;18.10;87.60
40374;DHT22;26079;45.958;12.492;2024-03-17T12:47:02;18.20;86.80
40374;DHT22;26079;45.958;12.492;2024-03-17T12:49:32;18.20;87.40
40374;DHT22;26079;45.958;12.492;2024-03-17T12:52:01;18.20;88.20
40374;DHT22;26079;45.958;12.492;2024-03-17T12:54:28;18.20;87.00
40374;DHT22;26079;45.958;12.492;2024-03-17T12:57:07;18.30;85.80
40374;DHT22;26079;45.958;12.492;2024-03-17T12:59:52;18.30;87.00
40374;DHT22;26079;45.958;12.492;2024-03-17T13:02:43;18.40;87.00
40374;DHT22;26079;45.958;12.492;2024-03-17T13:05:20;18.40;86.60
40374;DHT22;26079;45.958;12.492;2024-03-17T13:07:49;18.40;87.20
40374;DHT22;26079;45.958;12.492;2024-03-17T13:10:19;18.40;87.70
40374;DHT22;26079;45.958;12.492;2024-03-17T13:12:46;18.50;86.30
40374;DHT22;26079;45.958;12.492;2024-03-17T13:15:16;18.60;86.80
40374;DHT22;26079;45.958;12.492;2024-03-17T13:17:45;18.50;85.50
40374;DHT22;26079;45.958;12.492;2024-03-17T13:20:15;18.50;85.90
40374;DHT22;26079;45.958;12.492;2024-03-17T13:22:42;18.40;86.60
40374;DHT22;26079;45.958;12.492;2024-03-17T13:25:23;18.50;86.50
40374;DHT22;26079;45.958;12.492;2024-03-17T13:27:52;18.50;86.00
40374;DHT22;26079;45.958;12.492;2024-03-17T13:30:19;18.50;86.10
40374;DHT22;26079;45.958;12.492;2024-03-17T13:32:48;18.50;86.00
40374;DHT22;26079;45.958;12.492;2024-03-17T13:35:17;18.50;86.40
40374;DHT22;26079;45.958;12.492;2024-03-17T13:37:47;18.60;86.70
40374;DHT22;26079;45.958;12.492;2024-03-17T13:40:14;18.50;86.20
40374;DHT22;26079;45.958;12.492;2024-03-17T13:42:49;18.50;86.60
40374;DHT22;26079;45.958;12.492;2024-03-17T13:45:15;18.50;86.50
40374;DHT22;26079;45.958;12.492;2024-03-17T13:47:45;18.40;86.50
40374;DHT22;26079;45.958;12.492;2024-03-17T13:50:11;18.40;87.00
40374;DHT22;26079;45.958;12.492;2024-03-17T13:52:42;18.40;86.40
40374;DHT22;26079;45.958;12.492;2024-03-17T13:55:15;18.40;87.70
40374;DHT22;26079;45.958;12.492;2024-03-17T13:57:47;18.40;87.50
40374;DHT22;26079;45.958;12.492;2024-03-17T14:00:13;18.30;87.60
40374;DHT22;26079;45.958;12.492;2024-03-17T14:02:43;18.30;88.80
40374;DHT22;26079;45.958;12.492;2024-03-17T14:05:12;18.30;88.80
40374;DHT22;26079;45.958;12.492;2024-03-17T14:07:38;18.40;88.30
40374;DHT22;26079;45.958;12.492;2024-03-17T14:10:05;18.30;88.80
40374;DHT22;26079;45.958;12.492;2024-03-17T14:12:31;18.30;88.30
40374;DHT22;26079;45.958;12.492;2024-03-17T14:14:57;18.30;88.90
40374;DHT22;26079;45.958;12.492;2024-03-17T14:17:23;18.30;88.20
40374;DHT22;26079;45.958;12.492;2024-03-17T14:19:48;18.30;88.90
40374;DHT22;26079;45.958;12.492;2024-03-17T14:22:14;18.40;89.40
40374;DHT22;26079;45.958;12.492;2024-03-17T14:24:40;18.30;89.70
40374;DHT22;26079;45.958;12.492;2024-03-17T14:27:07;18.30;89.90
40374;DHT22;26079;45.958;12.492;2024-03-17T14:29:33;18.10;89.20
40374;DHT22;26079;45.958;12.492;2024-03-17T14:31:58;18.10;90.00
40374;DHT22;26079;45.958;12.492;2024-03-17T14:34:24;18.00;90.20
40374;DHT22;26079;45.958;12.492;2024-03-17T14:36:52;17.90;90.40
40374;DHT22;26079;45.958;12.492;2024-03-17T14:39:18;18.00;89.90
40374;DHT22;26079;45.958;12.492;2024-03-17T14:41:43;18.10;90.40
40374;DHT22;26079;45.958;12.492;2024-03-17T14:44:09;18.10;90.00
40374;DHT22;26079;45.958;12.492;2024-03-17T14:46:35;18.20;90.70
40374;DHT22;26079;45.958;12.492;2024-03-17T14:49:03;18.20;90.50
40374;DHT22;26079;45.958;12.492;2024-03-17T14:51:30;18.20;90.40
40374;DHT22;26079;45.958;12.492;2024-03-17T14:53:55;18.00;90.20
40374;DHT22;26079;45.958;12.492;2024-03-17T14:56:22;17.90;90.70
40374;DHT22;26079;45.958;12.492;2024-03-17T14:58:47;18.00;90.30
40374;DHT22;26079;45.958;12.492;2024-03-17T15:01:13;17.90;90.80
40374;DHT22;26079;45.958;12.492;2024-03-17T15:03:39;17.90;90.90
40374;DHT22;26079;45.958;12.492;2024-03-17T15:06:12;17.70;91.40
40374;DHT22;26079;45.958;12.492;2024-03-17T15:08:38;17.70;91.70
40374;DHT22;26079;45.958;12.492;2024-03-17T15:11:04;17.70;91.60
40374;DHT22;26079;45.958;12.492;2024-03-17T15:13:30;17.60;91.00
40374;DHT22;26079;45.958;12.492;2024-03-17T15:15:56;17.60;91.30
40374;DHT22;26079;45.958;12.492;2024-03-17T15:18:22;17.60;91.70
40374;DHT22;26079;45.958;12.492;2024-03-17T15:20:52;17.60;91.70
40374;DHT22;26079;45.958;12.492;2024-03-17T15:23:18;17.60;91.60
40374;DHT22;26079;45.958;12.492;2024-03-17T15:25:44;17.50;91.80
40374;DHT22;26079;45.958;12.492;2024-03-17T15:28:10;17.50;91.30
40374;DHT22;26079;45.958;12.492;2024-03-17T15:30:38;17.40;91.70
40374;DHT22;26079;45.958;12.492;2024-03-17T15:33:03;17.30;92.10
40374;DHT22;26079;45.958;12.492;2024-03-17T15:35:29;17.30;92.10
40374;DHT22;26079;45.958;12.492;2024-03-17T15:37:57;17.30;91.90
40374;DHT22;26079;45.958;12.492;2024-03-17T15:40:23;17.20;92.30
40374;DHT22;26079;45.958;12.492;2024-03-17T15:42:50;17.20;92.80
40374;DHT22;26079;45.958;12.492;2024-03-17T15:45:16;17.20;92.80
40374;DHT22;26079;45.958;12.492;2024-03-17T15:47:45;17.20;93.00
40374;DHT22;26079;45.958;12.492;2024-03-17T15:50:11;17.10;93.50
40374;DHT22;26079;45.958;12.492;2024-03-17T15:52:40;17.10;92.70
40374;DHT22;26079;45.958;12.492;2024-03-17T15:55:08;17.20;93.90
40374;DHT22;26079;45.958;12.492;2024-03-17T15:57:34;17.20;94.10